createdAt,value
2023-05-10T00:00:17.920Z,17.89
2023-05-10T00:01:17.737Z,18.23
2023-05-10T00:02:17.867Z,17.82
2023-05-10T00:03:17.911Z,17.80
2023-05-10T00:04:17.954Z,17.75
2023-05-10T00:05:17.936Z,17.82
2023-05-10T00:06:18.007Z,17.35
2023-05-10T00:07:18.001Z,17.39
2023-05-10T00:08:18.100Z,17.66
2023-05-10T00:09:18.171Z,17.50
2023-05-10T00:10:18.339Z,17.46
2023-05-10T00:11:18.233Z,17.74
2023-05-10T00:12:18.294Z,17.24
2023-05-10T00:13:18.394Z,17.85
2023-05-10T00:14:18.401Z,17.14
2023-05-10T00:15:18.441Z,17.66
2023-05-10T00:16:18.512Z,17.25
2023-05-10T00:17:18.592Z,17.61
2023-05-10T00:18:18.597Z,17.65
2023-05-10T00:19:18.638Z,17.63
2023-05-10T00:20:18.927Z,17.55
2023-05-10T00:21:18.755Z,17.32
2023-05-10T00:22:18.862Z,17.49
2023-05-10T00:23:18.924Z,17.32
2023-05-10T00:24:18.939Z,17.32
2023-05-10T00:25:19.005Z,17.34
2023-05-10T00:26:19.037Z,17.08
2023-05-10T00:27:19.110Z,17.25
2023-05-10T00:28:19.149Z,17.01
2023-05-10T00:29:19.216Z,16.96
2023-05-10T00:30:19.450Z,17.10
2023-05-10T00:31:19.398Z,17.01
2023-05-10T00:32:19.450Z,17.08
2023-05-10T00:33:19.457Z,16.99
2023-05-10T00:34:19.521Z,17.05
2023-05-10T00:35:19.574Z,16.94
2023-05-10T00:36:19.619Z,17.00
2023-05-10T00:37:19.702Z,16.99
2023-05-10T00:38:19.744Z,17.27
2023-05-10T00:39:19.771Z,16.95
2023-05-10T00:40:19.863Z,17.04
2023-05-10T00:41:19.889Z,16.96
2023-05-10T00:42:19.922Z,16.84
2023-05-10T00:43:20.007Z,17.22
2023-05-10T00:44:20.040Z,16.93
2023-05-10T00:45:20.134Z,16.64
2023-05-10T00:46:20.238Z,16.82
2023-05-10T00:47:20.251Z,17.05
2023-05-10T00:48:20.287Z,16.84
2023-05-10T00:49:20.363Z,16.70
2023-05-10T00:50:20.411Z,16.58
2023-05-10T00:51:20.476Z,16.76
2023-05-10T00:52:20.515Z,16.57
2023-05-10T00:53:20.564Z,16.86
2023-05-10T00:54:20.628Z,16.62
2023-05-10T00:55:20.697Z,16.81
2023-05-10T00:56:20.750Z,16.81
2023-05-10T00:57:20.807Z,16.48
2023-05-10T00:58:20.855Z,16.61
2023-05-10T00:59:20.924Z,16.64
2023-05-10T01:00:21.011Z,16.47
2023-05-10T01:01:21.091Z,16.53
2023-05-10T01:02:21.193Z,16.49
2023-05-10T01:03:21.256Z,16.84
2023-05-10T01:04:21.208Z,16.59
2023-05-10T01:05:21.384Z,16.52
2023-05-10T01:06:21.366Z,16.75
2023-05-10T01:07:21.436Z,16.50
2023-05-10T01:08:21.483Z,15.99
2023-05-10T01:09:21.524Z,16.74
2023-05-10T01:10:21.604Z,16.39
2023-05-10T01:11:21.668Z,16.71
2023-05-10T01:12:21.788Z,16.19
2023-05-10T01:13:21.813Z,16.55
2023-05-10T01:14:21.893Z,16.04
2023-05-10T01:15:21.958Z,16.28
2023-05-10T01:16:22.064Z,16.08
2023-05-10T01:17:22.085Z,16.06
2023-05-10T01:18:22.131Z,16.46
2023-05-10T01:19:22.171Z,16.02
2023-05-10T01:20:22.247Z,15.99
2023-05-10T01:21:22.246Z,16.17
2023-05-10T01:22:22.349Z,16.06
2023-05-10T01:23:22.430Z,16.07
2023-05-10T01:24:22.470Z,16.03
2023-05-10T01:25:22.532Z,15.81
2023-05-10T01:26:22.598Z,15.83
2023-05-10T01:27:22.640Z,15.73
2023-05-10T01:28:22.726Z,16.06
2023-05-10T01:29:22.770Z,15.99
2023-05-10T01:30:22.867Z,15.89
2023-05-10T01:31:22.941Z,15.41
2023-05-10T01:32:22.987Z,15.47
2023-05-10T01:33:23.026Z,15.60
2023-05-10T01:34:23.065Z,15.55
2023-05-10T01:35:23.140Z,15.74
2023-05-10T01:36:23.161Z,15.37
2023-05-10T01:37:23.254Z,15.64
2023-05-10T01:38:23.296Z,15.21
2023-05-10T01:39:23.374Z,15.41
2023-05-10T01:40:23.444Z,15.22
2023-05-10T01:41:23.474Z,15.26
2023-05-10T01:42:23.512Z,15.51
2023-05-10T01:43:23.626Z,15.46
2023-05-10T01:44:23.682Z,15.47
2023-05-10T01:45:23.720Z,15.40
2023-05-10T01:46:23.922Z,15.50
2023-05-10T01:47:23.809Z,15.49
2023-05-10T01:48:23.894Z,15.09
2023-05-10T01:49:23.969Z,15.33
2023-05-10T01:50:24.013Z,15.20
2023-05-10T01:51:24.090Z,15.47
2023-05-10T01:52:24.139Z,14.99
2023-05-10T01:53:24.199Z,15.26
2023-05-10T01:54:24.309Z,15.12
2023-05-10T01:55:24.361Z,14.87
2023-05-10T01:56:24.421Z,14.97
2023-05-10T01:57:24.430Z,14.68
2023-05-10T01:58:24.520Z,15.06
2023-05-10T01:59:24.554Z,14.97
2023-05-10T02:00:24.657Z,15.16
2023-05-10T02:01:24.684Z,14.75
2023-05-10T02:02:24.797Z,14.91
2023-05-10T02:03:24.847Z,14.74
2023-05-10T02:04:24.896Z,14.74
2023-05-10T02:05:24.946Z,14.81
2023-05-10T02:06:24.984Z,14.69
2023-05-10T02:07:25.024Z,15.05
2023-05-10T02:08:25.138Z,14.36
2023-05-10T02:09:25.184Z,14.58
2023-05-10T02:10:25.209Z,14.56
2023-05-10T02:11:25.295Z,14.30
2023-05-10T02:12:25.372Z,14.70
2023-05-10T02:13:25.548Z,14.74
2023-05-10T02:14:25.502Z,14.35
2023-05-10T02:15:25.538Z,14.19
2023-05-10T02:16:25.620Z,14.57
2023-05-10T02:17:25.682Z,14.25
2023-05-10T02:18:25.705Z,14.37
2023-05-10T02:19:25.746Z,14.67
2023-05-10T02:20:25.839Z,14.33
2023-05-10T02:21:25.854Z,14.30
2023-05-10T02:22:25.878Z,14.46
2023-05-10T02:23:25.918Z,14.59
2023-05-10T02:24:25.952Z,14.09
2023-05-10T02:25:26.013Z,14.12
2023-05-10T02:26:26.076Z,14.35
2023-05-10T02:27:26.122Z,13.94
2023-05-10T02:28:26.175Z,14.07
2023-05-10T02:29:26.223Z,14.19
2023-05-10T02:30:26.244Z,13.88
2023-05-10T02:31:26.334Z,14.37
2023-05-10T02:32:26.388Z,13.92
2023-05-10T02:33:26.428Z,14.08
2023-05-10T02:34:26.492Z,14.06
2023-05-10T02:35:26.511Z,13.94
2023-05-10T02:36:26.579Z,13.61
2023-05-10T02:37:26.647Z,13.85
2023-05-10T02:38:26.734Z,13.53
2023-05-10T02:39:26.705Z,13.46
2023-05-10T02:40:28.678Z,13.72
2023-05-10T02:41:26.797Z,13.73
2023-05-10T02:42:26.877Z,13.72
2023-05-10T02:43:26.891Z,13.65
2023-05-10T02:44:26.908Z,13.46
2023-05-10T02:45:26.970Z,13.40
2023-05-10T02:46:27.008Z,13.59
2023-05-10T02:47:27.034Z,13.51
2023-05-10T02:48:27.081Z,13.28
2023-05-10T02:49:27.094Z,13.71
2023-05-10T02:50:27.148Z,13.50
2023-05-10T02:51:27.192Z,13.38
2023-05-10T02:52:27.211Z,13.06
2023-05-10T02:53:27.239Z,13.23
2023-05-10T02:54:27.280Z,13.46
2023-05-10T02:55:27.327Z,13.48
2023-05-10T02:56:27.378Z,13.36
2023-05-10T02:57:27.461Z,12.96
2023-05-10T02:58:27.468Z,13.14
2023-05-10T02:59:27.520Z,12.95
2023-05-10T03:00:27.526Z,13.18
2023-05-10T03:01:27.671Z,12.90
2023-05-10T03:02:27.682Z,13.14
2023-05-10T03:03:27.720Z,12.79
2023-05-10T03:04:27.783Z,12.86
2023-05-10T03:05:27.779Z,12.67
2023-05-10T03:06:27.819Z,13.02
2023-05-10T03:07:27.835Z,12.73
2023-05-10T03:08:27.870Z,12.94
2023-05-10T03:09:27.869Z,13.01
2023-05-10T03:10:27.948Z,12.78
2023-05-10T03:11:27.909Z,13.08
2023-05-10T03:12:27.966Z,12.87
2023-05-10T03:13:28.110Z,12.30
2023-05-10T03:14:28.172Z,12.62
2023-05-10T03:15:28.048Z,12.81
2023-05-10T03:16:28.258Z,12.73
2023-05-10T03:17:28.127Z,12.46
2023-05-10T03:18:28.165Z,12.57
2023-05-10T03:19:28.145Z,12.45
2023-05-10T03:20:28.197Z,12.46
2023-05-10T03:21:28.307Z,12.27
2023-05-10T03:22:28.274Z,12.40
2023-05-10T03:23:28.311Z,12.21
2023-05-10T03:24:28.359Z,12.56
2023-05-10T03:25:28.390Z,12.37
2023-05-10T03:26:28.428Z,12.62
2023-05-10T03:27:28.468Z,12.04
2023-05-10T03:28:28.498Z,12.34
2023-05-10T03:29:28.543Z,12.21
2023-05-10T03:30:28.567Z,12.14
2023-05-10T03:31:28.646Z,12.34
2023-05-10T03:32:28.598Z,12.24
2023-05-10T03:33:28.622Z,12.07
2023-05-10T03:34:28.688Z,12.09
2023-05-10T03:35:28.691Z,12.13
2023-05-10T03:36:28.741Z,12.14
2023-05-10T03:37:28.755Z,12.32
2023-05-10T03:38:30.373Z,12.21
2023-05-10T03:39:28.800Z,11.78
2023-05-10T03:40:28.823Z,12.02
2023-05-10T03:41:28.831Z,12.27
2023-05-10T03:42:28.830Z,12.23
2023-05-10T03:43:28.860Z,11.96
2023-05-10T03:44:28.870Z,12.40
2023-05-10T03:45:28.920Z,11.97
2023-05-10T03:46:29.047Z,12.05
2023-05-10T03:47:28.912Z,11.83
2023-05-10T03:48:28.922Z,11.83
2023-05-10T03:49:28.972Z,12.01
2023-05-10T03:50:28.974Z,11.77
2023-05-10T03:51:28.974Z,12.05
2023-05-10T03:52:29.010Z,11.77
2023-05-10T03:53:29.012Z,11.65
2023-05-10T03:54:29.054Z,11.96
2023-05-10T03:55:29.048Z,11.82
2023-05-10T03:56:29.072Z,11.99
2023-05-10T03:57:29.092Z,11.65
2023-05-10T03:58:29.152Z,11.82
2023-05-10T03:59:29.175Z,11.66
2023-05-10T04:00:29.179Z,11.77
2023-05-10T04:01:29.238Z,11.37
2023-05-10T04:02:29.324Z,11.73
2023-05-10T04:03:29.389Z,11.26
2023-05-10T04:04:29.303Z,10.75
2023-05-10T04:05:29.360Z,10.04
2023-05-10T04:06:29.493Z,8.87
2023-05-10T04:07:29.319Z,8.10
2023-05-10T04:08:29.324Z,7.55
2023-05-10T04:09:29.329Z,7.15
2023-05-10T04:10:29.344Z,6.38
2023-05-10T04:11:29.323Z,6.46
2023-05-10T04:12:29.302Z,6.02
2023-05-10T04:13:29.386Z,5.86
2023-05-10T04:14:29.323Z,5.57
2023-05-10T04:15:29.336Z,5.56
2023-05-10T04:16:29.351Z,5.40
2023-05-10T04:17:29.322Z,5.24
2023-05-10T04:18:29.339Z,5.08
2023-05-10T04:19:29.320Z,5.15
2023-05-10T04:20:29.314Z,5.11
2023-05-10T04:21:29.327Z,5.01
2023-05-10T04:22:29.291Z,5.05
2023-05-10T04:23:29.324Z,5.28
2023-05-10T04:24:29.296Z,5.15
2023-05-10T04:25:29.283Z,5.14
2023-05-10T04:26:29.350Z,5.30
2023-05-10T04:27:29.359Z,5.15
2023-05-10T04:28:29.363Z,4.94
2023-05-10T04:29:29.369Z,5.09
2023-05-10T04:30:29.363Z,4.90
2023-05-10T04:31:29.459Z,4.88
2023-05-10T04:32:29.434Z,4.66
2023-05-10T04:33:29.440Z,4.72
2023-05-10T04:34:29.396Z,4.84
2023-05-10T04:35:29.493Z,4.99
2023-05-10T04:36:29.402Z,4.89
2023-05-10T04:37:29.417Z,5.06
2023-05-10T04:38:29.429Z,4.99
2023-05-10T04:39:29.385Z,5.07
2023-05-10T04:40:29.388Z,5.09
2023-05-10T04:41:29.385Z,5.21
2023-05-10T04:42:29.387Z,5.22
2023-05-10T04:43:29.385Z,5.28
2023-05-10T04:44:29.421Z,5.36
2023-05-10T04:45:29.417Z,5.35
2023-05-10T04:46:29.417Z,5.47
2023-05-10T04:47:29.485Z,5.54
2023-05-10T04:48:29.400Z,5.65
2023-05-10T04:49:29.398Z,5.58
2023-05-10T04:50:29.442Z,5.66
2023-05-10T04:51:29.456Z,5.70
2023-05-10T04:52:29.423Z,5.76
2023-05-10T04:53:29.421Z,5.85
2023-05-10T04:54:29.438Z,5.90
2023-05-10T04:55:29.388Z,5.77
2023-05-10T04:56:29.422Z,5.81
2023-05-10T04:57:29.412Z,5.92
2023-05-10T04:58:29.387Z,5.97
2023-05-10T04:59:29.429Z,6.12
2023-05-10T05:00:29.406Z,6.09
2023-05-10T05:01:29.424Z,6.03
2023-05-10T05:02:29.471Z,6.03
2023-05-10T05:03:29.493Z,6.05
2023-05-10T05:04:29.432Z,6.02
2023-05-10T05:05:29.408Z,6.17
2023-05-10T05:06:29.410Z,6.27
2023-05-10T05:07:29.413Z,6.07
2023-05-10T05:08:29.430Z,6.17
2023-05-10T05:09:29.432Z,6.13
2023-05-10T05:10:29.437Z,6.24
2023-05-10T05:11:29.400Z,6.44
2023-05-10T05:12:29.405Z,6.34
2023-05-10T05:13:29.529Z,6.19
2023-05-10T05:14:29.428Z,6.36
2023-05-10T05:15:29.391Z,6.43
2023-05-10T05:16:29.387Z,6.37
2023-05-10T05:17:29.388Z,6.34
2023-05-10T05:18:29.391Z,6.29
2023-05-10T05:19:29.392Z,6.36
2023-05-10T05:20:29.366Z,6.31
2023-05-10T05:21:29.365Z,6.45
2023-05-10T05:22:29.453Z,6.33
2023-05-10T05:23:29.399Z,6.36
2023-05-10T05:24:29.355Z,6.52
2023-05-10T05:25:29.389Z,6.38
2023-05-10T05:26:29.381Z,6.37
2023-05-10T05:27:29.393Z,6.47
2023-05-10T05:28:29.397Z,6.43
2023-05-10T05:29:29.415Z,6.29
2023-05-10T05:30:29.393Z,6.35
2023-05-10T05:31:29.354Z,6.25
2023-05-10T05:32:29.415Z,6.35
2023-05-10T05:33:29.352Z,6.19
2023-05-10T05:34:29.403Z,6.31
2023-05-10T05:35:29.402Z,6.16
2023-05-10T05:36:29.372Z,5.66
2023-05-10T05:37:29.415Z,5.52
2023-05-10T05:38:29.428Z,5.26
2023-05-10T05:39:29.392Z,4.81
2023-05-10T05:40:29.379Z,4.88
2023-05-10T05:41:29.378Z,4.58
2023-05-10T05:42:29.402Z,3.90
2023-05-10T05:43:29.390Z,3.96
2023-05-10T05:44:29.401Z,3.77
2023-05-10T05:45:29.559Z,3.48
2023-05-10T05:46:29.474Z,3.75
2023-05-10T05:47:29.516Z,3.58
2023-05-10T05:48:29.503Z,3.79
2023-05-10T05:49:29.828Z,3.38
2023-05-10T05:50:29.757Z,3.51
2023-05-10T05:51:29.526Z,3.70
2023-05-10T05:52:29.520Z,3.73
2023-05-10T05:53:29.526Z,3.81
2023-05-10T05:54:29.577Z,3.89
2023-05-10T05:55:29.582Z,4.08
2023-05-10T05:56:29.587Z,4.16
2023-05-10T05:57:29.598Z,4.22
2023-05-10T05:58:29.613Z,4.15
2023-05-10T05:59:29.600Z,4.22
2023-05-10T06:00:29.578Z,4.09
2023-05-10T06:01:29.717Z,4.17
2023-05-10T06:02:29.708Z,4.23
2023-05-10T06:03:29.711Z,4.30
2023-05-10T06:04:29.829Z,4.54
2023-05-10T06:05:29.615Z,4.47
2023-05-10T06:06:29.796Z,4.40
2023-05-10T06:07:30.246Z,4.36
2023-05-10T06:08:29.640Z,4.28
2023-05-10T06:09:29.770Z,4.64
2023-05-10T06:10:29.652Z,4.63
2023-05-10T06:11:29.792Z,4.66
2023-05-10T06:12:29.605Z,4.85
2023-05-10T06:13:29.665Z,5.02
2023-05-10T06:14:29.567Z,5.11
2023-05-10T06:15:29.574Z,4.98
2023-05-10T06:16:29.640Z,5.21
2023-05-10T06:17:29.662Z,5.22
2023-05-10T06:18:29.547Z,5.34
2023-05-10T06:19:29.610Z,5.69
2023-05-10T06:20:29.619Z,5.57
2023-05-10T06:21:29.614Z,5.70
2023-05-10T06:22:29.671Z,5.71
2023-05-10T06:23:29.715Z,5.88
2023-05-10T06:24:29.756Z,6.09
2023-05-10T06:25:29.850Z,6.20
2023-05-10T06:26:29.810Z,6.37
2023-05-10T06:27:29.890Z,6.34
2023-05-10T06:28:30.291Z,6.51
2023-05-10T06:29:29.981Z,6.81
2023-05-10T06:30:30.439Z,6.97
2023-05-10T06:31:30.132Z,6.98
2023-05-10T06:32:30.171Z,7.02
2023-05-10T06:33:30.225Z,7.42
2023-05-10T06:34:30.271Z,7.47
2023-05-10T06:35:30.277Z,7.64
2023-05-10T06:36:30.387Z,7.79
2023-05-10T06:37:30.443Z,8.21
2023-05-10T06:38:30.771Z,8.38
2023-05-10T06:39:30.569Z,8.77
2023-05-10T06:40:30.654Z,9.56
2023-05-10T06:41:30.680Z,9.50
2023-05-10T06:42:30.686Z,9.56
2023-05-10T06:43:30.811Z,9.61
2023-05-10T06:44:30.765Z,10.58
2023-05-10T06:45:30.835Z,10.73
2023-05-10T06:46:30.918Z,10.23
2023-05-10T06:47:30.933Z,10.34
2023-05-10T06:48:31.299Z,10.01
2023-05-10T06:49:30.973Z,9.87
2023-05-10T06:50:31.261Z,10.07
2023-05-10T06:51:31.026Z,10.28
2023-05-10T06:52:31.074Z,10.80
2023-05-10T06:53:31.166Z,11.21
2023-05-10T06:54:31.205Z,11.23
2023-05-10T06:55:31.241Z,11.25
2023-05-10T06:56:31.239Z,11.01
2023-05-10T06:57:32.200Z,10.23
2023-05-10T06:58:31.292Z,10.23
2023-05-10T06:59:31.420Z,9.73
2023-05-10T07:00:31.390Z,9.56
2023-05-10T07:01:31.406Z,9.41
2023-05-10T07:02:31.478Z,9.32
2023-05-10T07:03:31.771Z,9.29
2023-05-10T07:04:31.855Z,9.18
2023-05-10T07:05:31.803Z,9.00
2023-05-10T07:06:33.762Z,8.80
2023-05-10T07:07:31.672Z,8.76
2023-05-10T07:08:31.726Z,8.77
2023-05-10T07:09:31.727Z,8.93
2023-05-10T07:10:31.797Z,8.53
2023-05-10T07:11:31.818Z,8.39
2023-05-10T07:12:31.838Z,8.23
2023-05-10T07:13:31.901Z,8.14
2023-05-10T07:14:31.877Z,8.13
2023-05-10T07:15:32.290Z,7.94
2023-05-10T07:16:31.967Z,7.87
2023-05-10T07:17:32.105Z,8.01
2023-05-10T07:18:32.065Z,7.97
2023-05-10T07:19:32.272Z,7.99
2023-05-10T07:20:32.064Z,7.85
2023-05-10T07:21:32.143Z,7.85
2023-05-10T07:22:32.246Z,8.06
2023-05-10T07:23:32.090Z,8.21
2023-05-10T07:24:32.166Z,8.27
2023-05-10T07:25:32.140Z,8.05
2023-05-10T07:26:32.152Z,8.28
2023-05-10T07:27:32.167Z,8.47
2023-05-10T07:28:32.228Z,8.48
2023-05-10T07:29:32.201Z,8.73
2023-05-10T07:30:32.271Z,9.01
2023-05-10T07:31:32.273Z,9.27
2023-05-10T07:32:32.378Z,9.25
2023-05-10T07:33:32.279Z,9.48
2023-05-10T07:34:32.318Z,9.70
2023-05-10T07:35:32.782Z,9.73
2023-05-10T07:36:32.308Z,9.90
2023-05-10T07:37:32.826Z,10.15
2023-05-10T07:38:32.395Z,9.28
2023-05-10T07:39:32.849Z,11.58
2023-05-10T07:40:32.361Z,11.47
2023-05-10T07:41:33.923Z,11.71
2023-05-10T07:42:32.413Z,11.63
2023-05-10T07:43:32.325Z,11.68
2023-05-10T07:44:32.349Z,11.30
2023-05-10T07:45:32.361Z,11.05
2023-05-10T07:46:32.350Z,11.10
2023-05-10T07:47:32.335Z,10.66
2023-05-10T07:48:32.288Z,10.51
2023-05-10T07:49:32.304Z,10.44
2023-05-10T07:50:32.293Z,10.50
2023-05-10T07:51:32.392Z,10.63
2023-05-10T07:52:32.247Z,10.96
2023-05-10T07:53:32.306Z,10.82
2023-05-10T07:54:32.310Z,11.15
2023-05-10T07:55:32.322Z,10.94
2023-05-10T07:56:32.258Z,11.10
2023-05-10T07:57:32.255Z,10.69
2023-05-10T07:58:32.217Z,10.75
2023-05-10T07:59:32.245Z,10.97
2023-05-10T08:00:32.258Z,10.74
2023-05-10T08:01:32.253Z,11.26
2023-05-10T08:02:32.318Z,10.90
2023-05-10T08:03:32.362Z,10.65
2023-05-10T08:04:32.291Z,10.87
2023-05-10T08:05:33.117Z,11.21
2023-05-10T08:06:32.227Z,11.23
2023-05-10T08:07:32.254Z,11.29
2023-05-10T08:08:33.036Z,11.38
2023-05-10T08:09:32.422Z,11.35
2023-05-10T08:10:32.445Z,11.72
2023-05-10T08:11:33.719Z,12.59
2023-05-10T08:12:32.822Z,12.65
2023-05-10T08:13:32.775Z,13.21
2023-05-10T08:14:32.688Z,13.13
2023-05-10T08:15:32.750Z,13.07
2023-05-10T08:16:32.926Z,13.02
2023-05-10T08:17:32.907Z,12.72
2023-05-10T08:18:33.316Z,11.55
2023-05-10T08:19:32.992Z,12.29
2023-05-10T08:20:33.060Z,11.83
2023-05-10T08:21:33.141Z,11.47
2023-05-10T08:22:33.112Z,11.06
2023-05-10T08:23:33.185Z,10.72
2023-05-10T08:24:33.223Z,10.52
2023-05-10T08:25:33.269Z,10.32
2023-05-10T08:26:33.310Z,10.17
2023-05-10T08:27:33.357Z,10.24
2023-05-10T08:28:33.417Z,9.87
2023-05-10T08:29:46.249Z,9.55
2023-05-10T08:30:34.385Z,9.56
2023-05-10T08:31:33.458Z,8.87
2023-05-10T08:32:33.464Z,8.39
2023-05-10T08:33:33.399Z,7.86
2023-05-10T08:34:33.809Z,7.78
2023-05-10T08:35:33.405Z,7.84
2023-05-10T08:36:33.362Z,7.44
2023-05-10T08:37:33.352Z,6.90
2023-05-10T08:38:33.361Z,6.82
2023-05-10T08:39:33.833Z,6.46
2023-05-10T08:40:33.332Z,6.29
2023-05-10T08:41:33.347Z,6.31
2023-05-10T08:42:33.296Z,6.29
2023-05-10T08:43:33.334Z,6.25
2023-05-10T08:44:33.365Z,6.23
2023-05-10T08:45:33.315Z,6.48
2023-05-10T08:46:33.318Z,6.75
2023-05-10T08:47:33.362Z,7.08
2023-05-10T08:48:33.280Z,7.20
2023-05-10T08:49:33.340Z,7.50
2023-05-10T08:50:33.299Z,7.81
2023-05-10T08:51:33.311Z,7.69
2023-05-10T08:52:33.314Z,7.71
2023-05-10T08:53:33.310Z,8.02
2023-05-10T08:54:33.346Z,8.30
2023-05-10T08:55:33.380Z,8.76
2023-05-10T08:56:33.446Z,9.15
2023-05-10T08:57:33.873Z,9.40
2023-05-10T08:58:33.515Z,9.65
2023-05-10T08:59:33.605Z,10.43
2023-05-10T09:00:33.771Z,11.16
2023-05-10T09:01:33.725Z,11.55
2023-05-10T09:02:33.819Z,11.90
2023-05-10T09:03:33.862Z,11.66
2023-05-10T09:04:33.995Z,11.38
2023-05-10T09:05:33.969Z,11.27
2023-05-10T09:06:34.032Z,11.23
2023-05-10T09:07:34.822Z,11.35
2023-05-10T09:08:34.143Z,11.38
2023-05-10T09:09:34.203Z,11.44
2023-05-10T09:10:34.267Z,11.25
2023-05-10T09:11:34.302Z,11.46
2023-05-10T09:12:34.373Z,11.62
2023-05-10T09:13:34.401Z,11.88
2023-05-10T09:14:34.488Z,11.87
2023-05-10T09:15:34.556Z,12.12
2023-05-10T09:16:34.657Z,12.26
2023-05-10T09:17:34.695Z,11.90
2023-05-10T09:18:34.837Z,12.30
2023-05-10T09:19:34.758Z,12.02
2023-05-10T09:20:34.851Z,12.15
2023-05-10T09:21:35.327Z,12.60
2023-05-10T09:22:34.964Z,13.14
2023-05-10T09:23:34.996Z,13.17
2023-05-10T09:24:35.089Z,13.50
2023-05-10T09:25:35.121Z,14.38
2023-05-10T09:26:35.316Z,15.89
2023-05-10T09:27:35.247Z,16.60
2023-05-10T09:28:35.316Z,16.58
2023-05-10T09:29:35.358Z,16.64
2023-05-10T09:30:35.405Z,16.54
2023-05-10T09:31:35.423Z,16.51
2023-05-10T09:32:35.488Z,14.96
2023-05-10T09:33:35.538Z,12.10
2023-05-10T09:34:35.614Z,9.38
2023-05-10T09:35:35.615Z,6.52
2023-05-10T09:36:35.620Z,5.07
2023-05-10T09:37:35.676Z,5.16
2023-05-10T09:38:35.817Z,5.46
2023-05-10T09:39:35.683Z,5.16
2023-05-10T09:40:35.705Z,5.02
2023-05-10T09:41:35.714Z,4.90
2023-05-10T09:42:35.718Z,4.94
2023-05-10T09:43:35.817Z,5.10
2023-05-10T09:44:35.753Z,5.07
2023-05-10T09:45:38.138Z,5.44
2023-05-10T09:46:36.004Z,5.74
2023-05-10T09:47:36.089Z,5.60
2023-05-10T09:48:35.977Z,5.77
2023-05-10T09:49:36.030Z,5.80
2023-05-10T09:50:36.016Z,5.83
2023-05-10T09:51:36.886Z,5.60
2023-05-10T09:52:36.011Z,5.56
2023-05-10T09:53:36.139Z,5.63
2023-05-10T09:54:36.882Z,5.66
2023-05-10T09:55:36.198Z,5.66
2023-05-10T09:56:36.255Z,5.41
2023-05-10T09:57:36.335Z,5.18
2023-05-10T09:58:36.440Z,5.03
2023-05-10T09:59:36.488Z,5.07
2023-05-10T10:00:36.549Z,5.05
2023-05-10T10:01:36.583Z,4.88
2023-05-10T10:02:36.846Z,4.91
2023-05-10T10:03:36.665Z,4.92
2023-05-10T10:04:36.766Z,4.76
2023-05-10T10:05:36.811Z,4.70
2023-05-10T10:06:36.876Z,4.69
2023-05-10T10:07:36.931Z,4.56
2023-05-10T10:08:36.958Z,4.48
2023-05-10T10:09:37.021Z,4.44
2023-05-10T10:10:37.120Z,4.48
2023-05-10T10:11:37.141Z,4.51
2023-05-10T10:12:37.201Z,4.36
2023-05-10T10:13:37.273Z,4.36
2023-05-10T10:14:37.307Z,4.31
2023-05-10T10:15:37.915Z,4.43
2023-05-10T10:16:41.427Z,4.50
2023-05-10T10:17:38.472Z,4.51
2023-05-10T10:18:37.917Z,4.51
2023-05-10T10:19:38.388Z,4.45
2023-05-10T10:20:37.415Z,4.35
2023-05-10T10:21:37.353Z,4.27
2023-05-10T10:22:37.861Z,4.19
2023-05-10T10:23:37.349Z,4.17
2023-05-10T10:24:37.376Z,4.12
2023-05-10T10:25:37.397Z,4.20
2023-05-10T10:26:37.861Z,4.27
2023-05-10T10:27:37.472Z,4.46
2023-05-10T10:28:37.503Z,4.49
2023-05-10T10:29:37.513Z,4.28
2023-05-10T10:30:37.589Z,3.68
2023-05-10T10:31:37.810Z,3.55
2023-05-10T10:32:37.653Z,3.51
2023-05-10T10:33:37.674Z,3.73
2023-05-10T10:34:37.744Z,3.30
2023-05-10T10:35:37.858Z,3.20
2023-05-10T10:36:37.818Z,3.15
2023-05-10T10:37:37.885Z,3.22
2023-05-10T10:38:37.869Z,3.33
2023-05-10T10:39:38.043Z,3.58
2023-05-10T10:40:38.402Z,3.75
2023-05-10T10:41:38.391Z,3.76
2023-05-10T10:42:38.377Z,3.65
2023-05-10T10:43:38.041Z,3.80
2023-05-10T10:44:38.333Z,3.74
2023-05-10T10:45:38.493Z,3.78
2023-05-10T10:46:38.162Z,4.00
2023-05-10T10:47:38.206Z,3.86
2023-05-10T10:48:38.142Z,3.86
2023-05-10T10:49:38.138Z,3.79
2023-05-10T10:50:38.212Z,3.94
2023-05-10T10:51:38.196Z,3.97
2023-05-10T10:52:38.218Z,3.73
2023-05-10T10:53:38.227Z,3.47
2023-05-10T10:54:38.262Z,3.74
2023-05-10T10:55:38.291Z,3.52
2023-05-10T10:56:38.361Z,3.38
2023-05-10T10:57:38.300Z,3.13
2023-05-10T10:58:38.317Z,3.24
2023-05-10T10:59:38.322Z,3.08
2023-05-10T11:00:38.451Z,2.98
2023-05-10T11:01:38.539Z,2.86
2023-05-10T11:02:38.432Z,2.86
2023-05-10T11:03:38.428Z,2.85
2023-05-10T11:04:38.497Z,2.72
2023-05-10T11:05:38.475Z,2.68
2023-05-10T11:06:38.454Z,2.72
2023-05-10T11:07:38.492Z,2.75
2023-05-10T11:08:38.869Z,2.79
2023-05-10T11:09:38.499Z,2.84
2023-05-10T11:10:38.530Z,2.71
2023-05-10T11:11:38.889Z,2.79
2023-05-10T11:12:38.918Z,2.78
2023-05-10T11:13:38.531Z,2.75
2023-05-10T11:14:38.535Z,2.82
2023-05-10T11:15:38.894Z,2.96
2023-05-10T11:16:38.733Z,3.34
2023-05-10T11:17:38.578Z,3.76
2023-05-10T11:18:38.600Z,3.89
2023-05-10T11:19:38.564Z,3.34
2023-05-10T11:20:38.584Z,2.83
2023-05-10T11:21:38.578Z,2.55
2023-05-10T11:22:38.601Z,2.24
2023-05-10T11:23:38.618Z,2.18
2023-05-10T11:24:38.643Z,2.03
2023-05-10T11:25:38.659Z,1.78
2023-05-10T11:26:38.736Z,1.65
2023-05-10T11:27:38.746Z,1.58
2023-05-10T11:28:38.778Z,1.51
2023-05-10T11:29:38.798Z,1.33
2023-05-10T11:30:38.880Z,1.22
2023-05-10T11:31:38.875Z,1.14
2023-05-10T11:32:39.002Z,1.09
2023-05-10T11:33:38.984Z,0.97
2023-05-10T11:34:39.045Z,0.89
2023-05-10T11:35:41.030Z,0.85
2023-05-10T11:36:39.088Z,0.81
2023-05-10T11:37:39.077Z,0.79
2023-05-10T11:38:39.046Z,0.77
2023-05-10T11:39:39.085Z,0.73
2023-05-10T11:40:39.037Z,0.72
2023-05-10T11:41:39.658Z,0.71
2023-05-10T11:42:39.076Z,0.69
2023-05-10T11:43:39.037Z,0.62
2023-05-10T11:44:38.993Z,0.58
2023-05-10T11:45:39.019Z,0.56
2023-05-10T11:46:39.091Z,0.54
2023-05-10T11:47:40.800Z,0.52
2023-05-10T11:48:38.989Z,0.50
2023-05-10T11:49:39.002Z,0.50
2023-05-10T11:50:39.001Z,0.51
2023-05-10T11:51:38.970Z,0.50
2023-05-10T11:52:38.955Z,0.50
2023-05-10T11:53:39.002Z,0.50
2023-05-10T11:54:38.966Z,0.50
2023-05-10T11:55:38.914Z,0.50
2023-05-10T11:56:38.940Z,0.51
2023-05-10T11:57:38.900Z,0.50
2023-05-10T11:58:38.923Z,0.50
2023-05-10T11:59:39.865Z,0.50
2023-05-10T12:00:38.918Z,0.49
2023-05-10T12:01:38.870Z,0.49
2023-05-10T12:02:38.978Z,0.50
2023-05-10T12:03:39.658Z,0.52
2023-05-10T12:04:38.908Z,0.55
2023-05-10T12:05:40.566Z,0.63
2023-05-10T12:06:39.158Z,0.75
2023-05-10T12:07:39.106Z,1.22
2023-05-10T12:08:39.129Z,1.42
2023-05-10T12:09:43.815Z,1.55
2023-05-10T12:10:40.208Z,1.56
2023-05-10T12:11:40.546Z,1.64
2023-05-10T12:12:39.116Z,1.57
2023-05-10T12:13:39.135Z,1.69
2023-05-10T12:14:39.149Z,1.94
2023-05-10T12:15:39.154Z,2.44
2023-05-10T12:16:39.143Z,3.32
2023-05-10T12:17:40.238Z,3.65
2023-05-10T12:18:39.124Z,3.90
2023-05-10T12:19:39.055Z,4.15
2023-05-10T12:20:39.087Z,4.37
2023-05-10T12:21:39.098Z,4.74
2023-05-10T12:22:39.060Z,5.04
2023-05-10T12:23:39.110Z,5.25
2023-05-10T12:24:39.224Z,5.52
2023-05-10T12:25:39.232Z,5.53
2023-05-10T12:26:39.397Z,5.65
2023-05-10T12:27:39.355Z,6.45
2023-05-10T12:28:39.438Z,6.66
2023-05-10T12:29:41.059Z,6.99
2023-05-10T12:30:39.433Z,7.24
2023-05-10T12:31:39.461Z,7.56
2023-05-10T12:32:39.460Z,7.59
2023-05-10T12:33:39.450Z,7.71
2023-05-10T12:34:39.524Z,7.86
2023-05-10T12:35:40.741Z,8.29
2023-05-10T12:36:39.462Z,8.30
2023-05-10T12:37:39.408Z,8.31
2023-05-10T12:38:39.430Z,8.25
2023-05-10T12:39:39.396Z,8.01
2023-05-10T12:40:39.427Z,7.92
2023-05-10T12:41:41.458Z,8.28
2023-05-10T12:42:39.425Z,8.28
2023-05-10T12:43:39.402Z,8.33
2023-05-10T12:44:39.335Z,8.36
2023-05-10T12:45:39.384Z,8.43
2023-05-10T12:46:39.374Z,8.64
2023-05-10T12:47:42.215Z,8.89
2023-05-10T12:48:39.346Z,8.90
2023-05-10T12:49:39.330Z,8.96
2023-05-10T12:50:39.364Z,9.06
2023-05-10T12:51:39.314Z,9.08
2023-05-10T12:52:39.317Z,9.20
2023-05-10T12:53:40.917Z,9.06
2023-05-10T12:54:39.286Z,9.02
2023-05-10T12:55:39.321Z,8.74
2023-05-10T12:56:39.297Z,8.81
2023-05-10T12:57:39.296Z,8.66
2023-05-10T12:58:39.241Z,8.67
2023-05-10T12:59:39.417Z,8.47
2023-05-10T13:00:39.245Z,8.42
2023-05-10T13:01:39.486Z,8.35
2023-05-10T13:02:39.274Z,8.41
2023-05-10T13:03:39.241Z,8.36
2023-05-10T13:04:39.300Z,8.30
2023-05-10T13:05:39.252Z,8.15
2023-05-10T13:06:39.264Z,8.09